METAR v bližini

 

LJLJ - Ljubljana/Brnik, Slovenia
Oddaljenost od postaje: Z 41km
Podatki zajeti: 13/12/2018 21:00
Rahel sneg, Oblačno
Rahel sneg, Oblačno
 Veter iz smeri VJV
Veter: VJV 4 km/h
Temperatura: 0°C
Rosišče: -3°C
Vlažnost: 80%
Tlak: 1017 hPa
Stanje: Rahel sneg
Oblačnost: Oblačno
Vidljivost: 10 km
Podrobnosti o oblakih: Delno oblačno 427 m
Oblačno 1067 m
2018/12/13 20:00 LJLJ 132000Z 12002KT 9999 -SN SCT014 OVC035 M00/M03 Q1017 NOSIG
LJMB - Maribor, Slovenia
Oddaljenost od postaje: SV 63km
Podatki zajeti: 13/12/2018 21:00
Oblačno
Oblačno
 Veter iz smeri S
Veter: S 9 km/h
Temperatura: 0°C
Občutek mraza zaradi vetra: -3°C
Rosišče: -3°C
Vlažnost: 80%
Tlak: 1019 hPa
Oblačnost: Oblačno
Vidljivost: 10 km
Podrobnosti o oblakih: Oblačno 792 m
2018/12/13 20:00 LJMB 132000Z 36005KT 9999 OVC026 M00/M03 Q1019
 
LJPZ - Portoroz, Slovenia
Oddaljenost od postaje: JZ 130km
Podatki zajeti: 13/12/2018 21:00
Rahlo dežuje, Sneg, Oblačno
Rahlo dežuje, Sneg, Oblačno
 Veter iz smeri S
Veter: S 7 km/h
Temperatura: 3°C
Občutek mraza zaradi vetra: 1°C
Rosišče: -1°C
Vlažnost: 75%
Tlak: 1015 hPa
Stanje: Rahlo dežuje, Sneg
Oblačnost: Oblačno
Vidljivost: 10 km
Podrobnosti o oblakih: Delno oblačno 914 m
Oblačno 1524 m
2018/12/13 20:00 LJPZ 132000Z 36004KT 330V060 9999 -RASN SCT030 OVC050 03/M01 Q1015
LJCE - Cerklje, Slovenia
Oddaljenost od postaje: VJV 49km
Podatki zajeti: 13/12/2018 21:00
Oblačno
Oblačno
 Veter iz smeri V
Veter: V 7 km/h
Temperatura: 0°C
Občutek mraza zaradi vetra: -3°C
Rosišče: -2°C
Vlažnost: 87%
Tlak: 1019 hPa
Oblačnost: Oblačno
Vidljivost: 10 km
Podrobnosti o oblakih: Oblačno 610 m
2018/12/13 20:00 LJCE 132000Z 08004KT 9999 OVC020 00/M02 Q1019 RMK WHT
 
LDZA - Zagreb/Pleso, Croatia
Oddaljenost od postaje: VJV 96km
Podatki zajeti: 13/12/2018 21:30
Oblačno
Oblačno
 Veter iz smeri SV
Veter: SV 13 km/h
Temperatura: 1°C
Občutek mraza zaradi vetra: -3°C
Rosišče: -1°C
Vlažnost: 87%
Tlak: 1019 hPa
Oblačnost: Oblačno
Vidljivost: 10 km
Podrobnosti o oblakih: Rahlo oblačno 396 m
Oblačno 1097 m
2018/12/13 20:30 LDZA 132030Z 05007KT 020V080 9999 FEW013 OVC036 01/M01 Q1019 TEMPO BKN013
LDRI - Rijeka/Omisalj, Croatia
Oddaljenost od postaje: JJZ 109km
Podatki zajeti: 13/12/2018 21:30
Pretežno oblačno
Pretežno oblačno
 Veter iz smeri VSV
Veter: VSV 22 km/h
Temperatura: 5°C
Občutek mraza zaradi vetra: 1°C
Rosišče: -4°C
Vlažnost: 53%
Tlak: 1014 hPa
Oblačnost: Pretežno oblačno
Vidljivost: 10 km
Podrobnosti o oblakih: Rahlo oblačno 91 m
Delno oblačno 1006 m
Pretežno oblačno 1585 m
2018/12/13 20:30 LDRI 132030Z 06012KT 010V100 9999 FEW003 SCT033 BKN052 05/M04 Q1014
 
LDPL - Pula, Croatia
Oddaljenost od postaje: JJZ 164km
Podatki zajeti: 13/12/2018 21:30
Rahlo oblačno
Rahlo oblačno
 Veter iz smeri VSV
Veter: VSV 30 km/h
Temperatura: 5°C
Občutek mraza zaradi vetra: 0°C
Rosišče: -1°C
Vlažnost: 66%
Tlak: 1013 hPa
Oblačnost: Rahlo oblačno
Vidljivost: 10 km
Podrobnosti o oblakih: Rahlo oblačno 914 m
2018/12/13 20:30 LDPL 132030Z 06016KT 9999 FEW030 05/M01 Q1013 NOSIG
LOWK - Klagenfurt(Civ/M, Austria
Oddaljenost od postaje: SZ 76km
Podatki zajeti: 13/12/2018 21:20
Rahel sneg, Plohe, Oblačno
Rahel sneg, Plohe, Oblačno
 Veter iz smeri VSV
Veter: VSV 9 km/h
Temperatura: 0°C
Občutek mraza zaradi vetra: -3°C
Rosišče: -4°C
Vlažnost: 75%
Tlak: 1017 hPa
Stanje: Rahel sneg, Plohe
Oblačnost: Oblačno
Vidljivost: 10 km
Podrobnosti o oblakih: Delno oblačno 610 m
Oblačno 2438 m
2018/12/13 20:20 LOWK 132020Z 07005KT 040V120 9999 -SHSN SCT020 OVC080 M00/M04 Q1017 NOSIG
 
LOWG - Graz (mil/Civ), Austria
Oddaljenost od postaje: SSV 100km
Podatki zajeti: 13/12/2018 21:20
Pretežno oblačno
Pretežno oblačno
 Veter iz smeri JV
Veter: JV 7 km/h
Temperatura: -1°C
Občutek mraza zaradi vetra: -4°C
Rosišče: -4°C
Vlažnost: 80%
Tlak: 1019 hPa
Oblačnost: Pretežno oblačno
Vidljivost: 10 km
Podrobnosti o oblakih: Rahlo oblačno 274 m
Pretežno oblačno 488 m
2018/12/13 20:20 LOWG 132020Z AUTO 14004KT 9999 FEW009 BKN016 M01/M04 Q1019 R17/19//95 TEMPO SCT010 BKN014
LOWZ - Zell Am See, Austria
Oddaljenost od postaje: SZ 211km
Podatki zajeti: 31/12/2016 17:00
Ni posodobljen
Jasno
Jasno
 Veter iz smeri spremenljiv
Veter: spremenljiv 4 km/h
Temperatura: -4°C
Rosišče: -7°C
Vlažnost: 80%
Tlak: 1031 hPa
Oblačnost: Jasno
2016/12/31 16:00 LOWZ 311600Z VRB02KT 50KM SKC M04/M07 Q1031
 
LOAN - Wr.neustadt East, Austria
Oddaljenost od postaje: SSV 212km
Podatki zajeti: 13/12/2018 16:00
Ni posodobljen
Meglica, Pretežno oblačno
Meglica, Pretežno oblačno
 Veter iz smeri V
Veter: V 9 km/h
Stanje: Meglica
Oblačnost: Pretežno oblačno
Vidljivost: 4 km
Podrobnosti o oblakih: Rahlo oblačno 396 m
Pretežno oblačno 610 m
2018/12/13 15:00 LOAN 131500Z 09005KT 4000 BR FEW013ST BKN020SC
LIPQ - Ronchi Legionari, Italy
Oddaljenost od postaje: JZ 35km
Podatki zajeti: 13/12/2018 21:20
Pretežno oblačno
Pretežno oblačno
 Veter iz smeri V
Veter: V 28 km/h
Temperatura: 5°C
Občutek mraza zaradi vetra: 1°C
Rosišče: -4°C
Vlažnost: 53%
Tlak: 1015 hPa
Oblačnost: Pretežno oblačno
Vidljivost: 10 km
Podrobnosti o oblakih: Pretežno oblačno 1524 m
2018/12/13 20:20 LIPQ 132020Z 08015KT 9999 BKN050 05/M04 Q1015
 
LIVT - Trieste, Italy
Oddaljenost od postaje: ZJZ 109km
Podatki zajeti: 13/12/2018 20:55
Delno oblačno
Delno oblačno
 Veter iz smeri SSV
Veter: SSV 28 km/h, Sunek vetra: 56 km/h
Temperatura: 3°C
Občutek mraza zaradi vetra: -3°C
Rosišče: -1°C
Vlažnost: 75%
Tlak: 1015 hPa
Oblačnost: Delno oblačno
Vidljivost: 10 km
Podrobnosti o oblakih: Delno oblačno 762 m
2018/12/13 19:55 LIVT 131955Z 03015G30KT 9999 SCT025 03/M01 Q1015
LIVO - Tarvisio, Italy
Oddaljenost od postaje: SSZ 49km
Podatki zajeti: 13/12/2018 18:55
Ni posodobljen
Oblačno
Oblačno
 Veter iz smeri V
Veter: V 4 km/h
Temperatura: -2°C
Rosišče: -3°C
Vlažnost: 93%
Tlak: 1014 hPa
Oblačnost: Oblačno
Vidljivost: 10 km
Podrobnosti o oblakih: Oblačno 305 m
2018/12/13 17:55 LIVO 131755Z 10002KT 9999 OVC010 M02/M03 Q1014 RMK OVC VIS MIN 9999
 
LIPZ - Venezia/Tessera, Italy
Oddaljenost od postaje: ZJZ 217km
Podatki zajeti: 13/12/2018 21:20
Jasno
Jasno
 Veter iz smeri S
Veter: S 15 km/h
Temperatura: 2°C
Občutek mraza zaradi vetra: -2°C
Rosišče: -1°C
Vlažnost: 81%
Tlak: 1016 hPa
Stanje: Jasno
Vidljivost: večja od 10 km
2018/12/13 20:20 LIPZ 132020Z 01008KT CAVOK 02/M01 Q1016 NOSIG
LHSM - Balaton, Hungary
Oddaljenost od postaje: VSV 177km
Podatki zajeti: 13/12/2018 16:45
Ni posodobljen
Pretežno oblačno
Pretežno oblačno
 Veter iz smeri VSV
Veter: VSV 7 km/h
Temperatura: 0°C
Občutek mraza zaradi vetra: -3°C
Rosišče: -1°C
Vlažnost: 93%
Tlak: 1020 hPa
Oblačnost: Pretežno oblačno
Vidljivost: 10 km
Podrobnosti o oblakih: Pretežno oblačno 1219 m
2018/12/13 15:45 LHSM 131545Z 07004KT 9999 BKN040 M00/M01 Q1020